sensor_id;sensor_type;location;lat;lon;timestamp;temperature;humidity
6986;DHT22;3533;51.246;6.850;2022-09-09T00:00:19;25.10;42.10
6986;DHT22;3533;51.246;6.850;2022-09-09T00:02:59;25.20;42.20
6986;DHT22;3533;51.246;6.850;2022-09-09T00:08:03;25.10;42.20
6986;DHT22;3533;51.246;6.850;2022-09-09T00:10:38;25.20;42.20
6986;DHT22;3533;51.246;6.850;2022-09-09T00:19:08;25.10;42.10
6986;DHT22;3533;51.246;6.850;2022-09-09T00:21:55;25.10;42.20
6986;DHT22;3533;51.246;6.850;2022-09-09T00:27:16;25.20;42.20
6986;DHT22;3533;51.246;6.850;2022-09-09T00:29:43;25.10;42.30
6986;DHT22;3533;51.246;6.850;2022-09-09T00:32:16;25.10;42.20
6986;DHT22;3533;51.246;6.850;2022-09-09T00:35:04;25.10;42.20
6986;DHT22;3533;51.246;6.850;2022-09-09T00:37:35;25.10;42.20
6986;DHT22;3533;51.246;6.850;2022-09-09T00:40:15;25.10;42.20
6986;DHT22;3533;51.246;6.850;2022-09-09T00:42:44;25.10;42.30
6986;DHT22;3533;51.246;6.850;2022-09-09T00:48:01;25.10;42.20
6986;DHT22;3533;51.246;6.850;2022-09-09T00:51:00;25.10;42.30
6986;DHT22;3533;51.246;6.850;2022-09-09T00:56:09;25.20;42.30
6986;DHT22;3533;51.246;6.850;2022-09-09T00:58:37;25.10;42.30
6986;DHT22;3533;51.246;6.850;2022-09-09T01:01:03;25.10;42.30
6986;DHT22;3533;51.246;6.850;2022-09-09T01:06:22;25.10;42.30
6986;DHT22;3533;51.246;6.850;2022-09-09T01:09:10;25.10;42.30
6986;DHT22;3533;51.246;6.850;2022-09-09T01:22:15;25.10;42.30
6986;DHT22;3533;51.246;6.850;2022-09-09T01:27:19;25.10;42.30
6986;DHT22;3533;51.246;6.850;2022-09-09T01:29:46;25.10;42.30
6986;DHT22;3533;51.246;6.850;2022-09-09T01:32:48;25.10;43.10
6986;DHT22;3533;51.246;6.850;2022-09-09T01:37:44;25.10;42.20
6986;DHT22;3533;51.246;6.850;2022-09-09T01:40:10;25.10;42.30
6986;DHT22;3533;51.246;6.850;2022-09-09T01:42:36;25.10;42.20
6986;DHT22;3533;51.246;6.850;2022-09-09T01:45:02;25.10;42.30
6986;DHT22;3533;51.246;6.850;2022-09-09T01:47:29;25.10;42.30
6986;DHT22;3533;51.246;6.850;2022-09-09T01:49:54;25.10;42.30
6986;DHT22;3533;51.246;6.850;2022-09-09T01:52:20;25.20;42.30
6986;DHT22;3533;51.246;6.850;2022-09-09T01:54:45;25.10;42.20
6986;DHT22;3533;51.246;6.850;2022-09-09T02:00:04;25.10;42.30
6986;DHT22;3533;51.246;6.850;2022-09-09T02:05:27;25.10;42.30
6986;DHT22;3533;51.246;6.850;2022-09-09T02:08:08;25.10;42.30
6986;DHT22;3533;51.246;6.850;2022-09-09T02:13:09;25.10;42.30
6986;DHT22;3533;51.246;6.850;2022-09-09T02:18:10;25.10;42.30
6986;DHT22;3533;51.246;6.850;2022-09-09T02:20:38;25.10;42.30
6986;DHT22;3533;51.246;6.850;2022-09-09T02:23:05;25.10;42.30
6986;DHT22;3533;51.246;6.850;2022-09-09T02:25:34;25.10;42.30
6986;DHT22;3533;51.246;6.850;2022-09-09T02:28:03;25.10;42.30
6986;DHT22;3533;51.246;6.850;2022-09-09T02:30:32;25.10;42.30
6986;DHT22;3533;51.246;6.850;2022-09-09T02:33:01;25.10;42.30
6986;DHT22;3533;51.246;6.850;2022-09-09T02:35:30;25.10;42.30
6986;DHT22;3533;51.246;6.850;2022-09-09T02:38:00;25.10;42.20
6986;DHT22;3533;51.246;6.850;2022-09-09T02:40:26;25.10;42.30
6986;DHT22;3533;51.246;6.850;2022-09-09T02:42:54;25.10;42.30
6986;DHT22;3533;51.246;6.850;2022-09-09T02:45:24;25.10;43.10
6986;DHT22;3533;51.246;6.850;2022-09-09T02:50:40;25.10;42.30
6986;DHT22;3533;51.246;6.850;2022-09-09T02:53:16;25.10;43.00
6986;DHT22;3533;51.246;6.850;2022-09-09T02:56:11;25.10;42.30
6986;DHT22;3533;51.246;6.850;2022-09-09T02:58:39;25.10;42.30
6986;DHT22;3533;51.246;6.850;2022-09-09T03:01:05;25.10;43.10
6986;DHT22;3533;51.246;6.850;2022-09-09T03:03:31;25.10;42.30
6986;DHT22;3533;51.246;6.850;2022-09-09T03:05:57;25.10;42.30
6986;DHT22;3533;51.246;6.850;2022-09-09T03:08:22;25.10;42.30
6986;DHT22;3533;51.246;6.850;2022-09-09T03:10:48;25.10;42.30
6986;DHT22;3533;51.246;6.850;2022-09-09T03:13:14;25.10;42.30
6986;DHT22;3533;51.246;6.850;2022-09-09T03:15:40;25.10;42.30
6986;DHT22;3533;51.246;6.850;2022-09-09T03:18:06;25.10;42.30
6986;DHT22;3533;51.246;6.850;2022-09-09T03:20:31;25.10;42.20
6986;DHT22;3533;51.246;6.850;2022-09-09T03:22:58;25.10;42.30
6986;DHT22;3533;51.246;6.850;2022-09-09T03:25:24;25.10;42.30
6986;DHT22;3533;51.246;6.850;2022-09-09T03:27:52;25.10;42.30
6986;DHT22;3533;51.246;6.850;2022-09-09T03:30:22;25.10;42.20
6986;DHT22;3533;51.246;6.850;2022-09-09T03:32:48;25.10;42.30
6986;DHT22;3533;51.246;6.850;2022-09-09T03:35:14;25.10;42.30
6986;DHT22;3533;51.246;6.850;2022-09-09T03:37:40;25.10;42.30
6986;DHT22;3533;51.246;6.850;2022-09-09T03:40:07;25.10;42.30
6986;DHT22;3533;51.246;6.850;2022-09-09T03:42:35;25.10;42.30
6986;DHT22;3533;51.246;6.850;2022-09-09T03:45:06;25.10;42.30
6986;DHT22;3533;51.246;6.850;2022-09-09T03:47:32;25.10;42.30
6986;DHT22;3533;51.246;6.850;2022-09-09T03:49:58;25.10;42.30
6986;DHT22;3533;51.246;6.850;2022-09-09T03:52:24;25.10;42.30
6986;DHT22;3533;51.246;6.850;2022-09-09T03:54:51;25.10;42.30
6986;DHT22;3533;51.246;6.850;2022-09-09T03:57:18;25.10;42.20
6986;DHT22;3533;51.246;6.850;2022-09-09T03:59:44;25.10;42.30
6986;DHT22;3533;51.246;6.850;2022-09-09T04:02:09;25.10;42.20
6986;DHT22;3533;51.246;6.850;2022-09-09T04:04:35;25.10;42.20
6986;DHT22;3533;51.246;6.850;2022-09-09T04:07:01;25.10;42.30
6986;DHT22;3533;51.246;6.850;2022-09-09T04:09:27;25.10;42.30
6986;DHT22;3533;51.246;6.850;2022-09-09T04:11:52;25.10;42.30
6986;DHT22;3533;51.246;6.850;2022-09-09T04:14:19;25.10;42.20
6986;DHT22;3533;51.246;6.850;2022-09-09T04:16:44;25.10;42.30
6986;DHT22;3533;51.246;6.850;2022-09-09T04:19:11;25.10;42.20
6986;DHT22;3533;51.246;6.850;2022-09-09T04:21:39;25.10;42.20
6986;DHT22;3533;51.246;6.850;2022-09-09T04:24:06;25.10;42.20
6986;DHT22;3533;51.246;6.850;2022-09-09T04:26:32;25.10;42.20
6986;DHT22;3533;51.246;6.850;2022-09-09T04:28:58;25.10;42.20
6986;DHT22;3533;51.246;6.850;2022-09-09T04:31:24;25.10;42.10
6986;DHT22;3533;51.246;6.850;2022-09-09T04:33:50;25.10;42.10
6986;DHT22;3533;51.246;6.850;2022-09-09T04:36:16;25.10;42.00
6986;DHT22;3533;51.246;6.850;2022-09-09T04:38:43;25.20;42.10
6986;DHT22;3533;51.246;6.850;2022-09-09T04:41:10;25.20;42.00
6986;DHT22;3533;51.246;6.850;2022-09-09T04:43:37;25.20;42.00
6986;DHT22;3533;51.246;6.850;2022-09-09T04:46:03;25.20;42.00
6986;DHT22;3533;51.246;6.850;2022-09-09T04:48:29;25.20;42.00
6986;DHT22;3533;51.246;6.850;2022-09-09T04:51:03;25.20;42.00
6986;DHT22;3533;51.246;6.850;2022-09-09T04:53:30;25.20;41.90
6986;DHT22;3533;51.246;6.850;2022-09-09T04:56:14;25.20;42.00
6986;DHT22;3533;51.246;6.850;2022-09-09T04:58:40;25.20;41.90
6986;DHT22;3533;51.246;6.850;2022-09-09T05:01:14;25.20;41.90
6986;DHT22;3533;51.246;6.850;2022-09-09T05:03:39;25.20;42.00
6986;DHT22;3533;51.246;6.850;2022-09-09T05:06:10;25.20;42.00
6986;DHT22;3533;51.246;6.850;2022-09-09T05:08:37;25.20;41.90
6986;DHT22;3533;51.246;6.850;2022-09-09T05:11:16;25.20;41.90
6986;DHT22;3533;51.246;6.850;2022-09-09T05:13:42;25.20;41.90
6986;DHT22;3533;51.246;6.850;2022-09-09T05:16:08;25.20;42.00
6986;DHT22;3533;51.246;6.850;2022-09-09T05:18:37;25.20;41.90
6986;DHT22;3533;51.246;6.850;2022-09-09T05:21:02;25.20;41.90
6986;DHT22;3533;51.246;6.850;2022-09-09T05:23:28;25.20;41.90
6986;DHT22;3533;51.246;6.850;2022-09-09T05:25:55;25.20;41.90
6986;DHT22;3533;51.246;6.850;2022-09-09T05:28:22;25.20;41.90
6986;DHT22;3533;51.246;6.850;2022-09-09T05:31:08;25.20;41.90
6986;DHT22;3533;51.246;6.850;2022-09-09T05:33:35;25.20;41.90
6986;DHT22;3533;51.246;6.850;2022-09-09T05:36:24;25.20;41.90
6986;DHT22;3533;51.246;6.850;2022-09-09T05:38:49;25.20;41.80
6986;DHT22;3533;51.246;6.850;2022-09-09T05:41:16;25.20;41.90
6986;DHT22;3533;51.246;6.850;2022-09-09T05:43:43;25.20;42.60
6986;DHT22;3533;51.246;6.850;2022-09-09T05:46:17;25.20;41.90
6986;DHT22;3533;51.246;6.850;2022-09-09T05:48:44;25.20;41.80
6986;DHT22;3533;51.246;6.850;2022-09-09T05:51:21;25.20;41.90
6986;DHT22;3533;51.246;6.850;2022-09-09T05:53:48;25.20;41.80
6986;DHT22;3533;51.246;6.850;2022-09-09T05:56:19;25.20;41.80
6986;DHT22;3533;51.246;6.850;2022-09-09T05:58:45;25.20;41.80
6986;DHT22;3533;51.246;6.850;2022-09-09T06:01:17;25.20;41.80
6986;DHT22;3533;51.246;6.850;2022-09-09T06:03:44;25.20;41.80
6986;DHT22;3533;51.246;6.850;2022-09-09T06:06:31;25.20;41.80
6986;DHT22;3533;51.246;6.850;2022-09-09T06:08:57;25.20;41.80
6986;DHT22;3533;51.246;6.850;2022-09-09T06:11:26;25.20;41.80
6986;DHT22;3533;51.246;6.850;2022-09-09T06:13:52;25.20;41.70
6986;DHT22;3533;51.246;6.850;2022-09-09T06:16:22;25.20;41.70
6986;DHT22;3533;51.246;6.850;2022-09-09T06:18:51;25.20;41.70
6986;DHT22;3533;51.246;6.850;2022-09-09T06:21:43;25.20;41.80
6986;DHT22;3533;51.246;6.850;2022-09-09T06:24:09;25.20;41.70
6986;DHT22;3533;51.246;6.850;2022-09-09T06:26:39;25.20;41.70
6986;DHT22;3533;51.246;6.850;2022-09-09T06:29:08;25.20;41.70
6986;DHT22;3533;51.246;6.850;2022-09-09T06:31:35;25.20;41.70
6986;DHT22;3533;51.246;6.850;2022-09-09T06:34:04;25.20;41.80
6986;DHT22;3533;51.246;6.850;2022-09-09T06:36:32;25.20;41.70
6986;DHT22;3533;51.246;6.850;2022-09-09T06:38:58;25.20;41.70
6986;DHT22;3533;51.246;6.850;2022-09-09T06:41:27;25.20;41.70
6986;DHT22;3533;51.246;6.850;2022-09-09T06:43:53;25.20;41.70
6986;DHT22;3533;51.246;6.850;2022-09-09T06:46:23;25.20;41.70
6986;DHT22;3533;51.246;6.850;2022-09-09T06:48:53;25.20;41.80
6986;DHT22;3533;51.246;6.850;2022-09-09T06:51:22;25.20;41.70
6986;DHT22;3533;51.246;6.850;2022-09-09T06:53:53;25.20;41.80
6986;DHT22;3533;51.246;6.850;2022-09-09T06:56:33;25.20;41.70
6986;DHT22;3533;51.246;6.850;2022-09-09T06:59:02;25.20;41.80
6986;DHT22;3533;51.246;6.850;2022-09-09T07:01:31;25.20;41.70
6986;DHT22;3533;51.246;6.850;2022-09-09T07:03:58;25.20;41.80
6986;DHT22;3533;51.246;6.850;2022-09-09T07:08:53;25.20;41.70
6986;DHT22;3533;51.246;6.850;2022-09-09T07:11:19;25.20;41.70
6986;DHT22;3533;51.246;6.850;2022-09-09T07:13:46;25.20;41.70
6986;DHT22;3533;51.246;6.850;2022-09-09T07:16:15;25.20;41.70
6986;DHT22;3533;51.246;6.850;2022-09-09T07:18:41;25.20;41.60
6986;DHT22;3533;51.246;6.850;2022-09-09T07:21:09;25.20;41.70
6986;DHT22;3533;51.246;6.850;2022-09-09T07:23:38;25.10;41.40
6986;DHT22;3533;51.246;6.850;2022-09-09T07:26:11;25.10;41.40
6986;DHT22;3533;51.246;6.850;2022-09-09T07:28:39;25.10;41.40
6986;DHT22;3533;51.246;6.850;2022-09-09T07:31:05;25.10;41.30
6986;DHT22;3533;51.246;6.850;2022-09-09T07:33:33;25.10;41.20
6986;DHT22;3533;51.246;6.850;2022-09-09T07:36:08;25.10;41.20
6986;DHT22;3533;51.246;6.850;2022-09-09T07:38:55;25.10;41.10
6986;DHT22;3533;51.246;6.850;2022-09-09T07:41:31;25.10;41.10
6986;DHT22;3533;51.246;6.850;2022-09-09T07:43:59;25.10;41.00
6986;DHT22;3533;51.246;6.850;2022-09-09T07:46:26;25.10;40.80
6986;DHT22;3533;51.246;6.850;2022-09-09T07:48:54;25.10;40.80
6986;DHT22;3533;51.246;6.850;2022-09-09T07:51:23;25.10;40.70
6986;DHT22;3533;51.246;6.850;2022-09-09T07:53:55;25.10;40.70
6986;DHT22;3533;51.246;6.850;2022-09-09T07:56:23;25.10;40.60
6986;DHT22;3533;51.246;6.850;2022-09-09T07:58:50;25.10;40.50
6986;DHT22;3533;51.246;6.850;2022-09-09T08:01:21;25.10;40.50
6986;DHT22;3533;51.246;6.850;2022-09-09T08:03:56;25.10;40.40
6986;DHT22;3533;51.246;6.850;2022-09-09T08:06:25;25.10;40.30
6986;DHT22;3533;51.246;6.850;2022-09-09T08:08:52;25.00;40.30
6986;DHT22;3533;51.246;6.850;2022-09-09T08:11:21;25.00;40.20
6986;DHT22;3533;51.246;6.850;2022-09-09T08:13:50;25.00;40.20
6986;DHT22;3533;51.246;6.850;2022-09-09T08:16:22;25.00;40.10
6986;DHT22;3533;51.246;6.850;2022-09-09T08:18:49;25.00;40.10
6986;DHT22;3533;51.246;6.850;2022-09-09T08:21:23;25.00;40.10
6986;DHT22;3533;51.246;6.850;2022-09-09T08:23:51;25.00;40.00
6986;DHT22;3533;51.246;6.850;2022-09-09T08:26:38;25.00;40.00
6986;DHT22;3533;51.246;6.850;2022-09-09T08:29:06;25.00;40.00
6986;DHT22;3533;51.246;6.850;2022-09-09T08:31:38;25.00;39.90
6986;DHT22;3533;51.246;6.850;2022-09-09T08:34:05;25.00;39.80
6986;DHT22;3533;51.246;6.850;2022-09-09T08:36:36;25.00;39.80
6986;DHT22;3533;51.246;6.850;2022-09-09T08:39:04;25.00;39.80
6986;DHT22;3533;51.246;6.850;2022-09-09T08:47:08;25.00;39.70
6986;DHT22;3533;51.246;6.850;2022-09-09T08:49:48;25.00;39.60
6986;DHT22;3533;51.246;6.850;2022-09-09T08:52:29;25.00;39.60
6986;DHT22;3533;51.246;6.850;2022-09-09T08:55:02;25.00;39.60
6986;DHT22;3533;51.246;6.850;2022-09-09T08:57:30;25.00;39.60
6986;DHT22;3533;51.246;6.850;2022-09-09T08:59:58;25.00;39.60
6986;DHT22;3533;51.246;6.850;2022-09-09T09:10:48;25.00;39.60
6986;DHT22;3533;51.246;6.850;2022-09-09T09:13:22;25.00;39.70
6986;DHT22;3533;51.246;6.850;2022-09-09T09:15:58;25.00;39.60
6986;DHT22;3533;51.246;6.850;2022-09-09T09:18:26;25.00;39.70
6986;DHT22;3533;51.246;6.850;2022-09-09T09:23:32;25.00;39.70
6986;DHT22;3533;51.246;6.850;2022-09-09T09:26:01;25.00;39.70
6986;DHT22;3533;51.246;6.850;2022-09-09T09:28:32;25.00;39.70
6986;DHT22;3533;51.246;6.850;2022-09-09T09:31:10;25.00;39.70
6986;DHT22;3533;51.246;6.850;2022-09-09T09:33:48;25.00;39.70
6986;DHT22;3533;51.246;6.850;2022-09-09T09:36:15;25.00;39.80
6986;DHT22;3533;51.246;6.850;2022-09-09T09:38:56;25.00;39.80
6986;DHT22;3533;51.246;6.850;2022-09-09T09:41:54;25.00;39.80
6986;DHT22;3533;51.246;6.850;2022-09-09T09:44:31;25.00;39.80
6986;DHT22;3533;51.246;6.850;2022-09-09T09:47:13;25.00;39.80
6986;DHT22;3533;51.246;6.850;2022-09-09T09:49:53;25.00;39.90
6986;DHT22;3533;51.246;6.850;2022-09-09T09:52:23;25.00;39.90
6986;DHT22;3533;51.246;6.850;2022-09-09T09:54:50;25.00;40.00
6986;DHT22;3533;51.246;6.850;2022-09-09T09:57:18;25.00;40.00
6986;DHT22;3533;51.246;6.850;2022-09-09T09:59:44;25.00;40.00
6986;DHT22;3533;51.246;6.850;2022-09-09T10:04:44;25.00;40.00
6986;DHT22;3533;51.246;6.850;2022-09-09T10:07:21;25.00;40.00
6986;DHT22;3533;51.246;6.850;2022-09-09T10:09:53;25.00;40.00
6986;DHT22;3533;51.246;6.850;2022-09-09T10:12:36;25.00;40.00
6986;DHT22;3533;51.246;6.850;2022-09-09T10:15:19;25.00;39.90
6986;DHT22;3533;51.246;6.850;2022-09-09T10:21:14;25.00;39.80
6986;DHT22;3533;51.246;6.850;2022-09-09T10:34:56;25.00;39.90
6986;DHT22;3533;51.246;6.850;2022-09-09T10:42:53;25.00;40.00
6986;DHT22;3533;51.246;6.850;2022-09-09T10:50:55;25.00;39.80
6986;DHT22;3533;51.246;6.850;2022-09-09T10:53:35;24.90;39.80
6986;DHT22;3533;51.246;6.850;2022-09-09T10:56:07;24.90;39.80
6986;DHT22;3533;51.246;6.850;2022-09-09T10:58:40;25.00;39.80
6986;DHT22;3533;51.246;6.850;2022-09-09T11:02:12;24.90;39.70
6986;DHT22;3533;51.246;6.850;2022-09-09T11:04:17;24.90;40.50
6986;DHT22;3533;51.246;6.850;2022-09-09T11:06:49;24.90;39.70
6986;DHT22;3533;51.246;6.850;2022-09-09T11:09:22;24.90;40.50
6986;DHT22;3533;51.246;6.850;2022-09-09T11:11:56;24.90;39.60
6986;DHT22;3533;51.246;6.850;2022-09-09T11:17:52;24.90;39.60
6986;DHT22;3533;51.246;6.850;2022-09-09T11:20:20;24.90;39.60
6986;DHT22;3533;51.246;6.850;2022-09-09T11:22:58;24.90;39.70
6986;DHT22;3533;51.246;6.850;2022-09-09T11:28:04;24.90;39.70
6986;DHT22;3533;51.246;6.850;2022-09-09T11:31:21;24.90;39.60
6986;DHT22;3533;51.246;6.850;2022-09-09T11:39:33;24.90;39.70
6986;DHT22;3533;51.246;6.850;2022-09-09T11:42:15;24.90;39.70
6986;DHT22;3533;51.246;6.850;2022-09-09T11:44:43;24.90;39.70
6986;DHT22;3533;51.246;6.850;2022-09-09T11:47:24;24.90;39.70
6986;DHT22;3533;51.246;6.850;2022-09-09T11:50:27;24.90;39.70
6986;DHT22;3533;51.246;6.850;2022-09-09T11:55:39;24.90;39.60
6986;DHT22;3533;51.246;6.850;2022-09-09T12:00:47;24.90;39.60
6986;DHT22;3533;51.246;6.850;2022-09-09T12:03:46;24.90;39.40
6986;DHT22;3533;51.246;6.850;2022-09-09T12:08:50;24.90;39.40
6986;DHT22;3533;51.246;6.850;2022-09-09T12:11:29;24.90;39.40
6986;DHT22;3533;51.246;6.850;2022-09-09T12:13:58;24.90;39.40
6986;DHT22;3533;51.246;6.850;2022-09-09T12:16:36;24.90;39.40
6986;DHT22;3533;51.246;6.850;2022-09-09T12:19:16;24.90;39.30
6986;DHT22;3533;51.246;6.850;2022-09-09T12:21:58;24.90;39.30
6986;DHT22;3533;51.246;6.850;2022-09-09T12:24:56;24.90;39.20
6986;DHT22;3533;51.246;6.850;2022-09-09T12:27:40;24.90;39.20
6986;DHT22;3533;51.246;6.850;2022-09-09T12:30:14;24.90;39.20
6986;DHT22;3533;51.246;6.850;2022-09-09T12:32:40;24.90;39.10
6986;DHT22;3533;51.246;6.850;2022-09-09T12:35:21;24.90;39.20
6986;DHT22;3533;51.246;6.850;2022-09-09T12:38:00;24.90;39.10
6986;DHT22;3533;51.246;6.850;2022-09-09T12:40:33;24.90;39.20
6986;DHT22;3533;51.246;6.850;2022-09-09T12:43:23;24.90;39.10
6986;DHT22;3533;51.246;6.850;2022-09-09T12:45:48;24.90;39.10
6986;DHT22;3533;51.246;6.850;2022-09-09T12:48:18;24.90;39.10
6986;DHT22;3533;51.246;6.850;2022-09-09T12:50:50;24.90;39.10
6986;DHT22;3533;51.246;6.850;2022-09-09T12:53:24;24.90;39.10
6986;DHT22;3533;51.246;6.850;2022-09-09T12:56:04;24.90;39.10
6986;DHT22;3533;51.246;6.850;2022-09-09T12:58:33;24.90;39.10
6986;DHT22;3533;51.246;6.850;2022-09-09T13:01:02;24.90;39.10
6986;DHT22;3533;51.246;6.850;2022-09-09T13:03:32;24.90;39.10
6986;DHT22;3533;51.246;6.850;2022-09-09T13:06:11;24.90;39.20
6986;DHT22;3533;51.246;6.850;2022-09-09T13:08:38;24.90;39.20
6986;DHT22;3533;51.246;6.850;2022-09-09T13:11:09;24.90;39.30
6986;DHT22;3533;51.246;6.850;2022-09-09T13:13:41;24.90;39.20
6986;DHT22;3533;51.246;6.850;2022-09-09T13:16:29;24.90;39.30
6986;DHT22;3533;51.246;6.850;2022-09-09T13:19:09;24.90;39.40
6986;DHT22;3533;51.246;6.850;2022-09-09T13:21:39;24.90;39.30
6986;DHT22;3533;51.246;6.850;2022-09-09T13:24:19;24.90;39.40
6986;DHT22;3533;51.246;6.850;2022-09-09T13:26:54;24.80;39.40
6986;DHT22;3533;51.246;6.850;2022-09-09T13:29:23;24.80;39.40
6986;DHT22;3533;51.246;6.850;2022-09-09T13:31:50;24.90;39.50
6986;DHT22;3533;51.246;6.850;2022-09-09T13:34:32;24.90;39.50
6986;DHT22;3533;51.246;6.850;2022-09-09T13:37:04;24.90;39.60
6986;DHT22;3533;51.246;6.850;2022-09-09T13:39:33;24.90;39.60
6986;DHT22;3533;51.246;6.850;2022-09-09T13:42:01;24.90;39.60
6986;DHT22;3533;51.246;6.850;2022-09-09T13:44:38;24.90;39.70
6986;DHT22;3533;51.246;6.850;2022-09-09T13:47:22;24.90;39.60
6986;DHT22;3533;51.246;6.850;2022-09-09T13:49:51;24.90;39.60
6986;DHT22;3533;51.246;6.850;2022-09-09T13:52:18;24.90;39.60
6986;DHT22;3533;51.246;6.850;2022-09-09T13:54:51;24.90;39.70
6986;DHT22;3533;51.246;6.850;2022-09-09T13:57:23;24.90;39.60
6986;DHT22;3533;51.246;6.850;2022-09-09T13:59:49;24.90;39.70
6986;DHT22;3533;51.246;6.850;2022-09-09T14:02:15;24.90;39.70
6986;DHT22;3533;51.246;6.850;2022-09-09T14:04:42;24.90;39.70
6986;DHT22;3533;51.246;6.850;2022-09-09T14:07:12;24.90;39.50
6986;DHT22;3533;51.246;6.850;2022-09-09T14:09:38;24.90;39.30
6986;DHT22;3533;51.246;6.850;2022-09-09T14:12:05;24.90;39.20
6986;DHT22;3533;51.246;6.850;2022-09-09T14:14:31;24.90;39.10
6986;DHT22;3533;51.246;6.850;2022-09-09T14:16:57;24.90;39.20
6986;DHT22;3533;51.246;6.850;2022-09-09T14:19:23;24.90;39.30
6986;DHT22;3533;51.246;6.850;2022-09-09T14:21:48;24.90;39.40
6986;DHT22;3533;51.246;6.850;2022-09-09T14:24:14;24.90;39.50
6986;DHT22;3533;51.246;6.850;2022-09-09T14:26:39;24.90;39.60
6986;DHT22;3533;51.246;6.850;2022-09-09T14:29:06;24.90;39.60
6986;DHT22;3533;51.246;6.850;2022-09-09T14:31:32;24.90;39.70
6986;DHT22;3533;51.246;6.850;2022-09-09T14:33:58;24.90;39.70
6986;DHT22;3533;51.246;6.850;2022-09-09T14:36:24;24.90;39.70
6986;DHT22;3533;51.246;6.850;2022-09-09T14:38:49;24.90;39.70
6986;DHT22;3533;51.246;6.850;2022-09-09T14:41:18;24.90;39.80
6986;DHT22;3533;51.246;6.850;2022-09-09T14:43:44;24.90;39.80
6986;DHT22;3533;51.246;6.850;2022-09-09T14:46:12;24.90;39.80
6986;DHT22;3533;51.246;6.850;2022-09-09T14:48:39;24.90;39.90
6986;DHT22;3533;51.246;6.850;2022-09-09T14:51:18;24.90;39.90
6986;DHT22;3533;51.246;6.850;2022-09-09T14:53:46;24.90;39.90
6986;DHT22;3533;51.246;6.850;2022-09-09T14:56:17;24.90;40.00
6986;DHT22;3533;51.246;6.850;2022-09-09T14:58:43;24.90;40.00
6986;DHT22;3533;51.246;6.850;2022-09-09T15:01:11;24.90;40.00
6986;DHT22;3533;51.246;6.850;2022-09-09T15:03:37;24.90;40.10
6986;DHT22;3533;51.246;6.850;2022-09-09T15:06:13;24.90;40.10
6986;DHT22;3533;51.246;6.850;2022-09-09T15:08:42;24.90;40.10
6986;DHT22;3533;51.246;6.850;2022-09-09T15:11:10;24.90;40.20
6986;DHT22;3533;51.246;6.850;2022-09-09T15:13:37;24.90;40.20
6986;DHT22;3533;51.246;6.850;2022-09-09T15:16:09;24.90;40.20
6986;DHT22;3533;51.246;6.850;2022-09-09T15:18:35;24.90;40.30
6986;DHT22;3533;51.246;6.850;2022-09-09T15:21:02;24.90;41.10
6986;DHT22;3533;51.246;6.850;2022-09-09T15:23:31;24.90;40.30
6986;DHT22;3533;51.246;6.850;2022-09-09T15:25:57;24.90;40.40
6986;DHT22;3533;51.246;6.850;2022-09-09T15:28:23;24.90;40.40
6986;DHT22;3533;51.246;6.850;2022-09-09T15:30:52;24.90;40.40
6986;DHT22;3533;51.246;6.850;2022-09-09T15:33:19;24.90;40.40
6986;DHT22;3533;51.246;6.850;2022-09-09T15:35:45;24.90;40.50
6986;DHT22;3533;51.246;6.850;2022-09-09T15:38:11;24.90;40.50
6986;DHT22;3533;51.246;6.850;2022-09-09T15:40:39;24.90;40.50
6986;DHT22;3533;51.246;6.850;2022-09-09T15:43:06;24.90;40.60
6986;DHT22;3533;51.246;6.850;2022-09-09T15:45:32;24.90;40.60
6986;DHT22;3533;51.246;6.850;2022-09-09T15:47:59;24.90;40.60
6986;DHT22;3533;51.246;6.850;2022-09-09T15:50:26;24.90;40.60
6986;DHT22;3533;51.246;6.850;2022-09-09T15:52:51;24.90;40.60
6986;DHT22;3533;51.246;6.850;2022-09-09T15:55:18;24.90;40.60
6986;DHT22;3533;51.246;6.850;2022-09-09T15:57:45;24.90;40.70
6986;DHT22;3533;51.246;6.850;2022-09-09T16:00:12;24.90;40.70
6986;DHT22;3533;51.246;6.850;2022-09-09T16:02:39;24.90;40.60
6986;DHT22;3533;51.246;6.850;2022-09-09T16:05:05;24.90;40.60
6986;DHT22;3533;51.246;6.850;2022-09-09T16:07:31;24.90;40.60
6986;DHT22;3533;51.246;6.850;2022-09-09T16:09:57;24.90;40.60
6986;DHT22;3533;51.246;6.850;2022-09-09T16:12:22;24.90;40.70
6986;DHT22;3533;51.246;6.850;2022-09-09T16:14:48;24.90;40.70
6986;DHT22;3533;51.246;6.850;2022-09-09T16:17:13;24.90;40.80
6986;DHT22;3533;51.246;6.850;2022-09-09T16:19:40;24.90;41.50
6986;DHT22;3533;51.246;6.850;2022-09-09T16:22:06;24.90;40.70
6986;DHT22;3533;51.246;6.850;2022-09-09T16:24:32;24.90;40.80
6986;DHT22;3533;51.246;6.850;2022-09-09T16:26:58;24.90;40.70
6986;DHT22;3533;51.246;6.850;2022-09-09T16:29:24;24.90;40.50
6986;DHT22;3533;51.246;6.850;2022-09-09T16:31:53;24.90;40.30
6986;DHT22;3533;51.246;6.850;2022-09-09T16:34:19;25.00;40.30
6986;DHT22;3533;51.246;6.850;2022-09-09T16:36:46;25.00;40.20
6986;DHT22;3533;51.246;6.850;2022-09-09T16:39:15;25.00;40.20
6986;DHT22;3533;51.246;6.850;2022-09-09T16:41:42;25.00;40.10
6986;DHT22;3533;51.246;6.850;2022-09-09T16:44:11;25.00;40.10
6986;DHT22;3533;51.246;6.850;2022-09-09T16:46:42;25.00;40.00
6986;DHT22;3533;51.246;6.850;2022-09-09T16:49:13;25.00;40.00
6986;DHT22;3533;51.246;6.850;2022-09-09T16:51:42;25.00;39.80
6986;DHT22;3533;51.246;6.850;2022-09-09T16:54:09;25.00;39.80
6986;DHT22;3533;51.246;6.850;2022-09-09T16:56:37;25.00;39.80
6986;DHT22;3533;51.246;6.850;2022-09-09T16:59:07;25.00;39.80
6986;DHT22;3533;51.246;6.850;2022-09-09T17:01:35;25.00;39.80
6986;DHT22;3533;51.246;6.850;2022-09-09T17:04:10;25.00;39.80
6986;DHT22;3533;51.246;6.850;2022-09-09T17:06:36;25.00;39.70
6986;DHT22;3533;51.246;6.850;2022-09-09T17:09:09;25.00;39.70
6986;DHT22;3533;51.246;6.850;2022-09-09T17:11:35;25.00;39.80
6986;DHT22;3533;51.246;6.850;2022-09-09T17:14:02;25.00;39.70
6986;DHT22;3533;51.246;6.850;2022-09-09T17:16:30;25.00;39.70
6986;DHT22;3533;51.246;6.850;2022-09-09T17:18:57;25.00;39.90
6986;DHT22;3533;51.246;6.850;2022-09-09T17:21:28;25.00;40.10
6986;DHT22;3533;51.246;6.850;2022-09-09T17:23:54;25.00;40.20
6986;DHT22;3533;51.246;6.850;2022-09-09T17:26:25;25.00;40.30
6986;DHT22;3533;51.246;6.850;2022-09-09T17:28:52;25.00;40.40
6986;DHT22;3533;51.246;6.850;2022-09-09T17:31:19;25.00;40.40
6986;DHT22;3533;51.246;6.850;2022-09-09T17:33:47;25.00;40.50
6986;DHT22;3533;51.246;6.850;2022-09-09T17:36:30;25.00;40.60
6986;DHT22;3533;51.246;6.850;2022-09-09T17:38:57;25.00;40.60
6986;DHT22;3533;51.246;6.850;2022-09-09T17:41:25;24.90;40.70
6986;DHT22;3533;51.246;6.850;2022-09-09T17:43:52;24.90;40.70
6986;DHT22;3533;51.246;6.850;2022-09-09T17:46:20;24.90;40.70
6986;DHT22;3533;51.246;6.850;2022-09-09T17:48:47;24.90;40.80
6986;DHT22;3533;51.246;6.850;2022-09-09T17:51:16;24.90;40.90
6986;DHT22;3533;51.246;6.850;2022-09-09T17:53:47;24.90;40.80
6986;DHT22;3533;51.246;6.850;2022-09-09T17:56:15;24.90;40.90
6986;DHT22;3533;51.246;6.850;2022-09-09T17:58:42;24.90;40.90
6986;DHT22;3533;51.246;6.850;2022-09-09T18:01:28;24.90;40.90
6986;DHT22;3533;51.246;6.850;2022-09-09T18:03:58;24.90;41.70
6986;DHT22;3533;51.246;6.850;2022-09-09T18:06:28;24.90;41.00
6986;DHT22;3533;51.246;6.850;2022-09-09T18:08:58;24.90;41.00
6986;DHT22;3533;51.246;6.850;2022-09-09T18:11:28;24.90;41.00
6986;DHT22;3533;51.246;6.850;2022-09-09T18:13:56;24.90;41.00
6986;DHT22;3533;51.246;6.850;2022-09-09T18:16:23;24.90;41.10
6986;DHT22;3533;51.246;6.850;2022-09-09T18:18:49;24.90;41.00